메인 페이지
METAR-TAF:

METAR-TAF

공항 :

스토너웨이, 스코틀랜드

위도: 58-13N, 경도: 006-19W, 고도: 9m

현재 날씨관측

예보는 17분 전, 22:50시(UTC)에 발표되었습니다.
서남서3kt
온도 8°C
습도 93%
기압 1003 hPa
시정 10km 이상

METAR: EGPO 202250Z AUTO 24003KT 9999 NCD 08/07 Q1003

시각: 00:07 (23:07 UTC)

예보

예보는 3 시간 8분 전, 19:59시(UTC)에 발표되었습니다.
예보 대상 시간: 20일 21시부터 21일 06시까지 (UTC)
서남서7kt
시정 10km 이상
고도 2000ft 상공 구름 조금
고도 3500ft 상공 구름 많음
일시적
21일 00시부터 21일 06시까지 (UTC)
시정: 7000m
소나기
확률 30% :
일시적
21일 00시부터 21일 06시까지 (UTC)
시정: 3000m
고도 800ft 상공 구름 많음
고도 1400ft 상공 구름 많음, 적란운.
강한소나기,

TAF: EGPO 201959Z 2021/2106 24007KT 9999 FEW020 BKN035 TEMPO 2100/2106 7000 SHRA PROB30 TEMPO 2100/2106 3000 +SHRA BKN008 BKN014CB

4,000개 이상의 공항 관측 자료 및 예보 (METAR 및 TAF 보고).

지도상에서 검색 가능한 기상관측소가 노란 점과 빨간 점으로 표시되어 있습니다.

기상관측소 명을 보려면 표시 위로 마우스를 이동하세요.

날씨 관측과 예보를 보려면 클릭하세요.

지도 변경 : 확대하려면 엑스 표시가 있는 녹색 버튼, 축소하려면 빼기 표시가 있는 녹색 버튼, 다음 페이지의 지도를 보려면 녹색 화살표를 클릭하세요.


METAR-TAF: